Thunder radar more information blitzortung!


Radar de pluja more information rain snow radar


Visita la nostra xarxa de llocs de meteo:

Template documentation
and downloads

And another site



No particular awareness of the weather is required.    There are no Weather-warnings

Pagina Historial Weather Underground text

Diari Resum Novembre 4, 2017 Unitats:  Imperial    Mètric   Tant
« Previous Dia
SegĂźent Dia »
Diari Setmana Mensual Anual Personalitzada
  Maxima: Minima: Media:
Temperatura: TemperatureC °F 12.9 °F 15.6 °F
Punt de rosada: DewpointC °F 10.9 °F 12.4 °F
Humitat: Humidity % 63 % 82 %
Wind Speed: WindSpeedKMH mph 0.0 mph 2.8 mph
RĂ fegues de vent: WindSpeedGustKMH mph - -
Vent:- - SSE
Pression baro: PressurehPa in 1010.0 in -
Precipitacions: 17.0 in    
Historical Graphs
 
 
Dades de taula per Novembre 4, 2017
Temps Temperatura Punt de rosada Pression baro Vent Wind Speed RĂ fegues de vent Humitat Rainfall Rate (Hourly)
TemperatureC °F DewpointC °F PressurehPa in Calm     Humidity % HourlyPrecipMM in
00:00 13.9 °F 11.8 °F 1014.8 in NNE 3.7 mph 3.7 mph 87 % 0.0 in
00:05 13.9 °F 11.8 °F 1014.8 in Calm     87 % 0.0 in
00:10 13.9 °F 11.8 °F 1014.8 in NNE 1.9 mph 1.9 mph 87 % 0.0 in
00:15 13.8 °F 11.7 °F 1014.8 in Calm     87 % 0.0 in
00:20 13.6 °F 11.5 °F 1014.8 in WSW 1.9 mph 1.9 mph 87 % 0.0 in
00:25 13.4 °F 11.1 °F 1014.8 in WSW 1.9 mph   86 % 0.0 in
00:30 13.4 °F 11.3 °F 1014.8 in Calm     87 % 0.0 in
00:35 13.4 °F 11.3 °F 1014.8 in NNE 3.7 mph 3.7 mph 87 % 0.0 in
00:40 13.4 °F 11.3 °F 1013.8 in NNE 1.9 mph   87 % 0.0 in
00:45 13.4 °F 11.4 °F 1013.8 in Calm     88 % 0.0 in
00:50 13.4 °F 11.4 °F 1013.8 in Calm     88 % 0.0 in
00:55 13.4 °F 11.4 °F 1014.8 in Calm     88 % 0.0 in
01:00 13.4 °F 11.4 °F 1014.8 in Calm     88 % 0.0 in
01:05 13.3 °F 11.3 °F 1014.8 in Calm     88 % 0.0 in
01:10 13.2 °F 11.3 °F 1013.8 in NNE 1.4 mph   88 % 0.0 in
01:15 13.2 °F 11.3 °F 1013.8 in Calm     88 % 0.0 in
01:20 13.2 °F 11.3 °F 1013.8 in WNW 1.9 mph 1.9 mph 88 % 0.0 in
01:25 13.2 °F 11.3 °F 1014.8 in Calm     88 % 0.0 in
01:30 13.2 °F 11.3 °F 1014.8 in West 1.9 mph 1.9 mph 88 % 0.0 in
01:35 13.2 °F 11.3 °F 1014.8 in West 2.3 mph 2.3 mph 88 % 0.0 in
01:40 13.2 °F 11.4 °F 1014.8 in Calm     89 % 0.0 in
01:45 13.2 °F 11.4 °F 1014.8 in Calm     89 % 0.0 in
01:50 13.2 °F 11.4 °F 1014.8 in Calm     89 % 0.0 in
01:55 13.2 °F 11.4 °F 1013.8 in Calm     89 % 0.0 in
02:00 13.2 °F 11.4 °F 1013.8 in Calm     89 % 0.0 in
02:05 13.2 °F 11.4 °F 1013.8 in Calm     89 % 0.0 in
02:10 13.3 °F 11.5 °F 1013.8 in North 1.9 mph   89 % 0.0 in
02:15 13.3 °F 11.5 °F 1013.8 in Calm     89 % 0.0 in
02:20 13.3 °F 11.7 °F 1013.8 in Calm     90 % 0.0 in
02:21 13.3 °F 11.7 °F 1013.8 in Calm     90 % 0.0 in
02:26 13.3 °F 11.7 °F 1013.8 in Calm     90 % 0.0 in
02:31 13.2 °F 11.4 °F 1013.8 in Calm     89 % 0.0 in
02:36 13.2 °F 11.4 °F 1013.8 in Calm     89 % 0.0 in
02:41 13.2 °F 11.6 °F 1013.8 in Calm     90 % 0.0 in
02:46 13.2 °F 11.6 °F 1013.8 in Calm     90 % 0.0 in
02:51 13.2 °F 11.4 °F 1013.8 in Calm     89 % 0.0 in
02:56 13.2 °F 11.6 °F 1013.8 in Calm     90 % 0.0 in
03:01 13.2 °F 11.6 °F 1013.8 in Calm     90 % 0.0 in
03:06 13.3 °F 11.7 °F 1013.8 in Calm     90 % 0.0 in
03:11 13.3 °F 11.7 °F 1013.8 in Calm     90 % 0.0 in
03:16 13.1 °F 11.5 °F 1013.8 in Calm     90 % 0.0 in
03:21 13.2 °F 11.6 °F 1013.8 in Calm     90 % 0.0 in
03:26 13.1 °F 11.5 °F 1013.8 in Calm     90 % 0.0 in
03:31 13.1 °F 11.5 °F 1013.8 in Calm     90 % 0.0 in
03:36 13.1 °F 11.5 °F 1013.8 in Calm     90 % 0.0 in
03:41 13.1 °F 11.5 °F 1013.8 in Calm     90 % 0.0 in
03:46 13.0 °F 11.4 °F 1013.8 in SW 3.7 mph 3.7 mph 90 % 0.0 in
03:51 12.9 °F 11.1 °F 1013.8 in SW 2.3 mph 2.3 mph 89 % 0.0 in
03:56 12.9 °F 11.3 °F 1013.8 in Calm     90 % 0.0 in
04:01 12.9 °F 11.3 °F 1013.8 in Calm     90 % 0.0 in
04:06 13.0 °F 11.4 °F 1013.8 in Calm     90 % 0.0 in
04:11 13.0 °F 11.4 °F 1013.8 in North 1.9 mph   90 % 0.0 in
04:19 13.1 °F 11.5 °F 1013.8 in NNW 1.9 mph   90 % 0.0 in
04:21 13.1 °F 11.5 °F 1013.8 in North 1.9 mph 1.9 mph 90 % 0.0 in
04:23 13.1 °F 11.5 °F 1013.8 in WNW 3.7 mph 3.7 mph 90 % 0.0 in
04:26 13.1 °F 11.5 °F 1013.8 in NNW 5.0 mph 5.0 mph 90 % 0.0 in
04:27 13.2 °F 11.6 °F 1013.8 in ENE 5.6 mph 5.6 mph 90 % 0.0 in
04:30 13.2 °F 11.6 °F 1013.8 in North 5.6 mph 5.6 mph 90 % 0.0 in
04:35 13.3 °F 11.7 °F 1013.8 in NNE 1.6 mph 6.4 mph 90 % 0.0 in
04:40 13.4 °F 11.8 °F 1013.8 in NNE 4.8 mph 9.7 mph 90 % 0.0 in
04:45 13.4 °F 11.8 °F 1013.8 in NNE 5.6 mph 5.6 mph 90 % 0.0 in
04:50 13.5 °F 11.7 °F 1013.8 in NNE 9.3 mph 9.3 mph 89 % 0.0 in
04:55 13.4 °F 11.7 °F 1013.8 in NNE 4.8 mph 11.3 mph 89 % 0.0 in
05:00 13.4 °F 11.6 °F 1013.8 in NE 4.8 mph 9.7 mph 89 % 0.0 in
05:05 13.4 °F 11.6 °F 1013.8 in NNE 7.4 mph 7.4 mph 89 % 0.0 in
05:10 13.4 °F 11.6 °F 1013.8 in North 9.3 mph 9.3 mph 89 % 0.0 in
05:15 13.3 °F 11.5 °F 1013.8 in NNE 3.2 mph 8.0 mph 89 % 0.0 in
05:25 13.3 °F 11.5 °F 1012.8 in North 5.6 mph 5.6 mph 89 % 0.0 in
05:30 13.3 °F 11.5 °F 1012.8 in North 3.7 mph   89 % 0.0 in
05:35 13.4 °F 11.6 °F 1012.8 in North 1.6 mph 4.8 mph 89 % 0.0 in
05:40 13.4 °F 11.6 °F 1013.8 in North 1.6 mph 3.2 mph 89 % 0.0 in
05:45 13.4 °F 11.6 °F 1013.8 in Calm   3.2 mph 89 % 0.0 in
05:50 13.5 °F 11.7 °F 1013.8 in Calm     89 % 0.0 in
05:55 13.5 °F 11.7 °F 1013.8 in Calm     89 % 0.0 in
06:00 13.5 °F 11.7 °F 1013.8 in Calm     89 % 0.0 in
06:05 13.5 °F 11.7 °F 1013.8 in Calm     89 % 0.0 in
06:10 13.6 °F 11.8 °F 1013.8 in NW 3.2 mph 3.2 mph 89 % 0.0 in
06:15 13.6 °F 11.8 °F 1013.8 in Calm     89 % 0.0 in
06:20 13.6 °F 11.8 °F 1013.8 in North 2.6 mph   89 % 0.0 in
06:25 13.6 °F 11.8 °F 1013.8 in Calm   3.2 mph 89 % 0.0 in
06:30 13.7 °F 11.9 °F 1013.8 in NE 3.7 mph 3.7 mph 89 % 0.0 in
06:35 13.7 °F 11.9 °F 1013.8 in NE 3.2 mph 4.8 mph 89 % 0.0 in
06:40 13.7 °F 11.9 °F 1013.8 in Calm   4.8 mph 89 % 0.0 in
06:45 13.6 °F 11.7 °F 1013.8 in NE 1.9 mph   88 % 0.0 in
06:50 13.6 °F 11.7 °F 1013.8 in ENE 3.7 mph   88 % 0.0 in
06:55 13.6 °F 11.8 °F 1013.8 in WSW 1.6 mph 3.2 mph 89 % 0.0 in
07:00 13.6 °F 11.8 °F 1013.8 in Calm     89 % 0.0 in
07:05 13.6 °F 11.8 °F 1013.8 in SW 3.7 mph 3.7 mph 89 % 0.0 in
07:10 13.6 °F 11.8 °F 1013.8 in SW 1.9 mph 1.9 mph 89 % 0.0 in
07:15 13.6 °F 11.8 °F 1013.8 in Calm   3.2 mph 89 % 0.0 in
07:20 13.6 °F 11.8 °F 1013.8 in Calm   1.6 mph 89 % 0.0 in
07:25 13.6 °F 11.8 °F 1013.8 in NE 1.4 mph 2.3 mph 89 % 0.0 in
07:30 13.7 °F 11.9 °F 1013.8 in WSW 3.7 mph 3.7 mph 89 % 0.0 in
07:35 13.7 °F 11.9 °F 1013.8 in ENE 1.9 mph 1.9 mph 89 % 0.0 in
07:40 13.7 °F 11.9 °F 1013.8 in Calm     89 % 0.0 in
07:45 13.7 °F 11.9 °F 1013.8 in Calm     89 % 0.0 in
07:50 13.8 °F 12.0 °F 1013.8 in NNE 1.9 mph 1.9 mph 89 % 0.0 in
07:55 13.8 °F 12.0 °F 1013.8 in Calm     89 % 0.0 in
08:00 13.8 °F 12.0 °F 1013.8 in Calm   3.2 mph 89 % 0.0 in
08:05 13.8 °F 12.0 °F 1013.8 in NE 1.6 mph 3.2 mph 89 % 0.0 in
08:10 13.7 °F 11.9 °F 1013.8 in ENE 3.7 mph 3.7 mph 89 % 0.0 in
08:15 13.7 °F 11.9 °F 1013.8 in Calm     89 % 0.0 in
08:20 13.7 °F 11.9 °F 1013.8 in SW 3.7 mph   89 % 0.0 in
08:25 13.7 °F 11.9 °F 1012.8 in SW 3.2 mph 3.2 mph 89 % 0.0 in
08:30 13.7 °F 11.9 °F 1012.8 in Calm   1.6 mph 89 % 0.0 in
08:35 13.7 °F 11.9 °F 1012.8 in SW 3.7 mph 3.7 mph 89 % 0.0 in
08:40 13.7 °F 12.1 °F 1013.8 in SW 2.6 mph 2.6 mph 90 % 0.0 in
08:45 13.6 °F 11.8 °F 1013.8 in SW 1.6 mph 3.2 mph 89 % 0.0 in
08:50 13.6 °F 11.8 °F 1013.8 in WSW 1.6 mph 3.2 mph 89 % 0.0 in
08:55 13.6 °F 12.0 °F 1013.8 in WSW 1.9 mph   90 % 0.0 in
09:00 13.7 °F 12.1 °F 1013.8 in WSW 3.5 mph 3.5 mph 90 % 0.0 in
09:05 13.7 °F 12.1 °F 1013.8 in WSW 1.9 mph 1.9 mph 90 % 0.0 in
09:10 13.8 °F 12.2 °F 1013.8 in Calm     90 % 0.0 in
09:15 14.0 °F 12.4 °F 1013.8 in WNW 1.9 mph 1.9 mph 90 % 0.0 in
09:20 14.1 °F 12.7 °F 1013.8 in Calm     91 % 0.0 in
09:25 14.2 °F 12.8 °F 1012.8 in Calm   3.2 mph 91 % 0.0 in
09:30 14.4 °F 12.9 °F 1012.8 in NNE 5.0 mph 5.0 mph 91 % 0.0 in
09:35 14.6 °F 13.0 °F 1012.8 in NNE 7.9 mph 7.9 mph 90 % 0.0 in
09:40 15.1 °F 13.4 °F 1013.8 in NNE 3.7 mph 3.7 mph 90 % 0.0 in
09:45 15.4 °F 13.6 °F 1013.8 in NE 7.4 mph 7.4 mph 89 % 0.0 in
09:50 15.3 °F 13.3 °F 1013.8 in NE 3.2 mph 8.0 mph 88 % 0.0 in
09:55 15.3 °F 13.2 °F 1013.8 in North 3.2 mph 6.4 mph 87 % 0.0 in
10:00 15.3 °F 12.9 °F 1013.8 in NE 9.3 mph 9.3 mph 86 % 0.0 in
10:05 15.5 °F 13.0 °F 1013.8 in NNE 7.4 mph 7.4 mph 85 % 0.0 in
10:10 15.5 °F 13.0 °F 1013.8 in NNE 1.6 mph 9.7 mph 85 % 0.0 in
10:15 15.7 °F 13.0 °F 1013.8 in NNE 4.8 mph 9.7 mph 84 % 0.0 in
10:20 16.3 °F 13.6 °F 1013.8 in NW 3.9 mph 3.9 mph 84 % 0.0 in
10:25 16.6 °F 13.7 °F 1013.8 in NNE 3.2 mph 11.3 mph 83 % 0.0 in
10:30 16.7 °F 13.6 °F 1013.8 in NNE 4.8 mph 11.3 mph 82 % 0.0 in
10:35 16.9 °F 13.6 °F 1013.8 in NNE 3.2 mph 12.9 mph 81 % 0.0 in
10:40 17.3 °F 13.8 °F 1013.8 in NNE 5.6 mph 5.6 mph 80 % 0.0 in
10:45 17.4 °F 13.7 °F 1013.8 in ENE 3.7 mph 3.7 mph 79 % 0.0 in
10:50 17.4 °F 13.7 °F 1013.8 in NE 5.6 mph 5.6 mph 79 % 0.0 in
10:55 17.1 °F 13.2 °F 1013.8 in NE 4.8 mph 8.0 mph 78 % 0.0 in
11:00 17.3 °F 13.4 °F 1013.8 in NNE 3.7 mph 3.9 mph 78 % 0.0 in
11:05 17.4 °F 13.5 °F 1013.8 in NE 3.2 mph 4.8 mph 78 % 0.0 in
11:10 17.6 °F 13.7 °F 1014.8 in NNE 3.2 mph 8.0 mph 78 % 0.0 in
11:15 17.8 °F 13.7 °F 1014.8 in NE 3.2 mph 8.0 mph 77 % 0.0 in
11:20 18.0 °F 13.9 °F 1014.8 in NNE 1.6 mph 6.4 mph 77 % 0.0 in
11:25 18.3 °F 14.4 °F 1013.8 in NNW 1.6 mph 4.8 mph 78 % 0.0 in
11:30 18.7 °F 14.6 °F 1013.8 in North 3.7 mph 3.7 mph 77 % 0.0 in
11:35 18.6 °F 14.3 °F 1013.8 in NE 3.2 mph 4.8 mph 76 % 0.0 in
11:40 18.5 °F 14.2 °F 1013.8 in Calm   4.8 mph 76 % 0.0 in
11:45 18.7 °F 14.4 °F 1013.8 in SW 1.9 mph   76 % 0.0 in
11:50 18.9 °F 14.6 °F 1013.8 in NW 1.6 mph 4.8 mph 76 % 0.0 in
11:55 19.1 °F 14.6 °F 1013.8 in NNW 1.6 mph 3.2 mph 75 % 0.0 in
12:00 19.1 °F 14.6 °F 1013.8 in NE 2.3 mph 2.3 mph 75 % 0.0 in
12:05 18.9 °F 14.4 °F 1013.8 in NNE 3.7 mph 3.7 mph 75 % 0.0 in
12:10 19.0 °F 14.3 °F 1013.8 in ENE 3.7 mph 3.7 mph 74 % 0.0 in
12:15 19.0 °F 14.3 °F 1013.8 in NE 3.2 mph 6.4 mph 74 % 0.0 in
12:20 19.1 °F 14.3 °F 1013.8 in ENE 3.2 mph 6.4 mph 74 % 0.0 in
12:25 19.2 °F 14.1 °F 1012.8 in East 5.6 mph 6.1 mph 72 % 0.0 in
12:30 19.5 °F 14.3 °F 1012.8 in ESE 3.7 mph 3.7 mph 72 % 0.0 in
12:35 19.8 °F 14.6 °F 1012.8 in East 5.6 mph 5.6 mph 72 % 0.0 in
12:40 19.9 °F 14.7 °F 1011.7 in ENE 3.2 mph 4.8 mph 72 % 0.0 in
12:45 20.3 °F 14.8 °F 1011.7 in East 1.6 mph 6.4 mph 71 % 0.0 in
12:50 20.3 °F 14.7 °F 1011.7 in ESE 3.7 mph 3.7 mph 70 % 0.0 in
12:55 20.5 °F 14.6 °F 1010.7 in ESE 7.9 mph 7.9 mph 69 % 0.0 in
13:00 20.2 °F 14.6 °F 1010.7 in SE 1.6 mph 8.0 mph 70 % 0.0 in
13:05 20.4 °F 14.5 °F 1010.7 in SSE 3.2 mph 6.4 mph 69 % 0.0 in
13:10 20.6 °F 14.7 °F 1011.7 in NE 5.6 mph 5.6 mph 69 % 0.0 in
13:15 20.4 °F 14.5 °F 1011.7 in NNW 5.6 mph 5.6 mph 69 % 0.0 in
13:20 20.7 °F 14.8 °F 1011.7 in SE 4.7 mph 4.7 mph 69 % 0.0 in
13:25 21.2 °F 14.8 °F 1011.7 in SE 1.6 mph 4.8 mph 67 % 0.0 in
13:30 21.5 °F 15.3 °F 1011.7 in SW 3.2 mph 8.0 mph 68 % 0.0 in
13:35 21.5 °F 15.1 °F 1011.7 in SW 5.6 mph 5.6 mph 67 % 0.0 in
13:40 21.6 °F 15.0 °F 1010.7 in SSE 5.6 mph 5.6 mph 66 % 0.0 in
13:45 21.5 °F 14.7 °F 1010.7 in South 3.2 mph 4.8 mph 65 % 0.0 in
13:50 21.5 °F 14.9 °F 1010.7 in SW 1.6 mph 4.8 mph 66 % 0.0 in
13:55 21.6 °F 15.2 °F 1010.7 in WSW 4.8 mph 9.7 mph 67 % 0.0 in
14:00 21.7 °F 15.1 °F 1010.7 in WNW 5.6 mph 5.6 mph 66 % 0.0 in
14:05 22.2 °F 15.3 °F 1010.7 in SW 3.2 mph 8.0 mph 65 % 0.0 in
14:10 22.2 °F 15.1 °F 1010.7 in WSW 1.6 mph 4.8 mph 64 % 0.0 in
14:15 22.1 °F 14.9 °F 1010.7 in WSW 5.3 mph 5.3 mph 64 % 0.0 in
14:20 21.9 °F 14.8 °F 1010.7 in SW 5.6 mph   64 % 0.0 in
14:25 22.0 °F 14.6 °F 1010.7 in SW 1.6 mph 3.2 mph 63 % 0.0 in
14:30 21.8 °F 14.9 °F 1010.7 in SW 5.6 mph 5.6 mph 65 % 0.0 in
14:35 21.7 °F 14.6 °F 1010.7 in SW 1.6 mph 4.8 mph 64 % 0.0 in
14:40 21.5 °F 14.4 °F 1010.7 in SW 1.6 mph 4.8 mph 64 % 0.0 in
14:45 21.6 °F 14.7 °F 1010.7 in SW 5.6 mph 5.6 mph 65 % 0.0 in
14:50 21.6 °F 14.7 °F 1010.7 in SW 3.2 mph 8.0 mph 65 % 0.0 in
14:55 21.6 °F 14.7 °F 1010.7 in SW 3.2 mph 6.4 mph 65 % 0.0 in
15:00 21.2 °F 13.9 °F 1010.7 in ENE 3.7 mph   63 % 0.0 in
15:05 21.4 °F 14.3 °F 1010.7 in SSW 3.5 mph 3.5 mph 64 % 0.0 in
15:10 21.3 °F 14.4 °F 1010.0 in WSW 4.8 mph 8.0 mph 65 % 0.0 in
15:15 21.3 °F 14.2 °F 1010.0 in SW 1.6 mph 8.0 mph 64 % 0.0 in
15:20 21.4 °F 14.6 °F 1010.0 in West 4.7 mph 4.7 mph 65 % 0.0 in
15:25 21.4 °F 14.6 °F 1010.0 in West 7.4 mph 7.4 mph 65 % 0.0 in
15:30 21.5 °F 14.7 °F 1010.0 in SW 3.2 mph 8.0 mph 65 % 0.0 in
15:35 21.6 °F 14.4 °F 1010.0 in SW 1.6 mph 8.0 mph 64 % 0.0 in
15:40 21.7 °F 14.6 °F 1010.0 in SW 1.6 mph 4.8 mph 64 % 0.0 in
15:45 21.8 °F 14.7 °F 1010.0 in South 3.7 mph 3.7 mph 64 % 0.0 in
15:50 21.8 °F 14.7 °F 1010.0 in SW 3.2 mph 8.0 mph 64 % 0.0 in
15:55 22.0 °F 14.9 °F 1010.0 in SW 4.8 mph 8.0 mph 64 % 0.0 in
16:00 21.8 °F 14.6 °F 1010.0 in SW 4.8 mph 9.7 mph 64 % 0.0 in
16:10 21.1 °F 14.0 °F 1010.0 in WSW 5.6 mph 5.6 mph 64 % 0.0 in
16:15 20.9 °F 14.1 °F 1010.0 in SW 9.3 mph 9.3 mph 65 % 0.0 in
16:20 20.7 °F 13.7 °F 1010.0 in WSW 9.3 mph 9.3 mph 64 % 0.0 in
16:25 20.6 °F 13.6 °F 1010.0 in SW 5.6 mph 5.6 mph 64 % 0.0 in
16:30 20.4 °F 13.3 °F 1010.0 in SW 5.6 mph 5.6 mph 64 % 0.0 in
16:35 20.3 °F 13.5 °F 1010.0 in West 3.7 mph 3.7 mph 65 % 0.0 in
16:40 20.2 °F 13.4 °F 1010.0 in SW 3.7 mph 3.7 mph 65 % 0.0 in
16:45 20.0 °F 13.4 °F 1010.0 in WNW 5.6 mph 5.6 mph 66 % 0.0 in
16:50 19.6 °F 13.3 °F 1010.0 in ENE 9.3 mph 9.3 mph 67 % 0.0 in
16:55 19.2 °F 12.9 °F 1010.0 in NNE 11.1 mph 11.1 mph 67 % 0.0 in
17:00 18.9 °F 12.9 °F 1010.0 in WNW 5.6 mph 5.6 mph 68 % 0.0 in
17:05 18.8 °F 13.0 °F 1010.0 in NNE 5.6 mph 5.6 mph 69 % 0.0 in
17:10 18.7 °F 12.9 °F 1010.0 in NNE 5.6 mph 5.6 mph 69 % 0.0 in
17:15 18.5 °F 12.7 °F 1010.0 in NW 3.7 mph 3.7 mph 69 % 0.0 in
17:20 18.4 °F 12.6 °F 1010.0 in NNE 4.2 mph 4.2 mph 69 % 0.0 in
17:25 18.2 °F 12.6 °F 1010.0 in NNW 5.6 mph 5.6 mph 70 % 0.0 in
17:30 18.1 °F 12.6 °F 1010.0 in NW 7.4 mph 7.4 mph 70 % 0.0 in
17:35 17.9 °F 12.3 °F 1010.0 in NNE 13.0 mph 13.0 mph 70 % 0.0 in
17:40 17.8 °F 12.3 °F 1010.0 in NNE 11.1 mph 11.1 mph 70 % 0.0 in
17:45 17.7 °F 11.9 °F 1010.0 in NNW 6.1 mph 6.1 mph 69 % 0.0 in
17:50 17.6 °F 11.8 °F 1010.0 in WSW 5.6 mph 5.6 mph 69 % 0.0 in
17:55 17.6 °F 11.8 °F 1010.0 in NNE 3.7 mph 3.7 mph 69 % 0.0 in
18:00 17.5 °F 11.5 °F 1010.0 in NNW 3.7 mph 3.7 mph 68 % 0.0 in
18:05 17.5 °F 11.7 °F 1010.0 in NW 4.7 mph 4.7 mph 69 % 0.0 in
18:10 17.3 °F 11.8 °F 1010.7 in WNW 7.4 mph 7.4 mph 70 % 0.0 in
18:15 16.9 °F 11.8 °F 1010.7 in West 5.6 mph 5.6 mph 72 % 0.0 in
18:20 16.2 °F 11.3 °F 1010.7 in WSW 5.6 mph 5.6 mph 73 % 0.0 in
18:25 15.5 °F 11.1 °F 1011.7 in West 5.6 mph 5.6 mph 75 % 4.3 in
18:30 15.1 °F 10.9 °F 1011.7 in WNW 7.4 mph 7.4 mph 76 % 8.4 in
18:35 14.9 °F 11.1 °F 1011.7 in SW 1.9 mph 2.3 mph 78 % 8.4 in
18:40 14.8 °F 11.2 °F 1011.7 in WSW 1.9 mph 1.9 mph 79 % 8.4 in
18:45 14.7 °F 11.3 °F 1011.7 in Calm     80 % 8.4 in
18:50 14.6 °F 11.2 °F 1011.7 in West 1.9 mph   80 % 8.4 in
18:55 14.6 °F 11.4 °F 1011.7 in Calm     81 % 8.4 in
19:00 14.4 °F 11.4 °F 1011.7 in NE 3.7 mph 3.7 mph 82 % 8.4 in
19:05 14.4 °F 11.6 °F 1011.7 in NE 2.3 mph 2.3 mph 83 % 8.4 in
19:10 14.3 °F 11.4 °F 1011.7 in NE 7.4 mph 7.4 mph 83 % 8.4 in
19:15 14.2 °F 11.3 °F 1011.7 in NNE 3.9 mph 3.9 mph 83 % 8.4 in
19:20 14.0 °F 11.3 °F 1011.7 in ENE 5.6 mph 5.6 mph 84 % 14.7 in
19:25 13.9 °F 11.2 °F 1010.7 in NNE 5.6 mph 5.6 mph 84 % 10.4 in
19:30 13.8 °F 11.2 °F 1010.7 in Calm     84 % 6.3 in
19:35 13.7 °F 11.1 °F 1010.7 in Calm     84 % 6.3 in
19:40 13.7 °F 11.1 °F 1010.7 in WSW 3.7 mph 3.7 mph 84 % 6.3 in
19:45 13.8 °F 11.2 °F 1010.7 in Calm     84 % 6.3 in
19:50 13.8 °F 11.3 °F 1010.7 in SW 3.7 mph 3.7 mph 85 % 6.3 in
19:55 13.7 °F 11.2 °F 1010.0 in SW 1.9 mph 1.9 mph 85 % 6.3 in
20:00 13.7 °F 11.2 °F 1010.0 in SW 3.7 mph 3.7 mph 85 % 6.3 in
20:10 13.6 °F 10.9 °F 1010.7 in WSW 7.4 mph 7.4 mph 84 % 6.3 in
20:15 13.6 °F 11.1 °F 1010.7 in West 4.2 mph 4.2 mph 85 % 6.3 in
20:20 13.6 °F 11.1 °F 1010.7 in WSW 5.6 mph 5.6 mph 85 % 0.0 in
20:25 13.6 °F 11.1 °F 1010.7 in WSW 7.4 mph 7.4 mph 85 % 0.0 in
20:30 13.6 °F 11.1 °F 1010.7 in West 4.2 mph 4.2 mph 85 % 1.0 in
20:35 13.6 °F 11.5 °F 1010.7 in SW 3.7 mph   87 % 1.0 in
20:41 13.7 °F 11.6 °F 1010.7 in Calm     87 % 2.0 in
20:46 13.7 °F 11.7 °F 1010.7 in Calm     88 % 2.0 in
20:51 13.7 °F 11.7 °F 1010.7 in Calm     88 % 2.0 in
20:56 13.7 °F 11.9 °F 1010.0 in Calm     89 % 2.0 in
21:01 13.7 °F 11.9 °F 1010.0 in Calm     89 % 2.0 in
21:06 13.7 °F 11.9 °F 1010.0 in Calm     89 % 2.0 in
21:11 13.7 °F 11.9 °F 1010.0 in SSW 2.6 mph 2.6 mph 89 % 2.0 in
21:16 13.7 °F 11.9 °F 1010.0 in SW 2.3 mph 2.3 mph 89 % 2.0 in
21:21 13.7 °F 11.9 °F 1010.0 in SW 3.7 mph 3.7 mph 89 % 2.0 in
21:26 13.6 °F 11.8 °F 1010.7 in SW 3.5 mph 3.5 mph 89 % 2.0 in
21:31 13.6 °F 11.8 °F 1010.7 in SW 3.7 mph 3.7 mph 89 % 2.0 in
21:36 13.5 °F 11.7 °F 1010.7 in Calm     89 % 1.0 in
21:41 13.5 °F 11.7 °F 1010.7 in WSW 3.7 mph 3.7 mph 89 % 1.0 in
21:46 13.6 °F 11.8 °F 1010.7 in Calm     89 % 0.0 in
21:51 13.6 °F 12.0 °F 1010.7 in Calm     90 % 0.0 in
21:56 13.6 °F 12.0 °F 1010.7 in SW 1.9 mph   90 % 0.0 in
22:01 13.5 °F 11.9 °F 1010.7 in SW 2.6 mph   90 % 0.0 in
22:06 13.5 °F 11.7 °F 1011.7 in WSW 3.7 mph 3.7 mph 89 % 0.0 in
22:11 13.5 °F 11.7 °F 1011.7 in WSW 3.7 mph 3.7 mph 89 % 0.0 in
22:16 13.5 °F 11.9 °F 1011.7 in WSW 1.9 mph   90 % 0.0 in
22:21 13.5 °F 11.9 °F 1011.7 in SW 1.9 mph   90 % 0.0 in
22:26 13.4 °F 11.8 °F 1011.7 in ESE 1.9 mph 1.9 mph 90 % 0.0 in
22:27 13.4 °F 11.8 °F 1011.7 in ESE 1.9 mph   90 % 0.0 in
22:32 13.4 °F 11.9 °F 1011.7 in Calm     91 % 0.0 in
22:33 13.4 °F 11.9 °F 1011.7 in Calm     91 % 0.0 in
22:38 13.5 °F 12.1 °F 1010.7 in Calm     91 % 0.0 in
22:43 13.4 °F 11.9 °F 1010.7 in Calm     91 % 0.0 in
22:48 13.4 °F 11.9 °F 1010.7 in Calm     91 % 0.0 in
22:53 13.5 °F 12.1 °F 1010.7 in Calm     91 % 0.0 in
22:55 13.5 °F 12.1 °F 1010.7 in SW 3.9 mph   91 % 0.0 in
23:00 13.5 °F 12.1 °F 1010.7 in SW 1.4 mph   91 % 0.0 in
23:05 13.5 °F 12.1 °F 1010.7 in SW 3.2 mph   91 % 0.0 in
23:10 13.4 °F 11.9 °F 1010.7 in SW 3.9 mph 3.9 mph 91 % 0.0 in
23:15 13.5 °F 12.1 °F 1010.7 in SW 3.7 mph 3.7 mph 91 % 0.0 in
23:20 13.5 °F 12.1 °F 1010.7 in WSW 3.9 mph 3.9 mph 91 % 0.0 in
23:25 13.5 °F 11.9 °F 1010.7 in WSW 3.7 mph 3.7 mph 90 % 0.0 in
23:30 13.5 °F 12.1 °F 1010.7 in Calm     91 % 0.0 in
23:35 13.5 °F 12.1 °F 1010.7 in Calm     91 % 0.0 in
23:40 13.4 °F 11.9 °F 1010.7 in WSW 3.7 mph   91 % 0.0 in
23:45 13.4 °F 11.9 °F 1010.7 in SW 3.7 mph   91 % 0.0 in
23:50 13.3 °F 11.9 °F 1010.7 in Calm     91 % 0.0 in
23:55 13.3 °F 11.9 °F 1010.0 in SW 3.7 mph 3.7 mph 91 % 0.0 in
Meteo Sesrovires
Elogis d' Weather Underground - 4 mb

Guio original per  Jim McMurry - jmcmurry@mwt.net Adaptat per a la plantilla per  Wim van der Kuil - Leuven-Template.eu

Trobareu la nostra informacio del temps tambe a:

Weather Underground

AWEKAS